createdAt,value
2022-12-18T00:02:13.956Z,28.93
2022-12-18T00:04:40.621Z,28.00
2022-12-18T00:07:07.808Z,30.17
2022-12-18T00:09:39.665Z,27.37
2022-12-18T00:14:45.614Z,27.00
2022-12-18T00:17:12.349Z,26.50
2022-12-18T00:19:39.136Z,27.07
2022-12-18T00:22:07.195Z,27.20
2022-12-18T00:24:33.906Z,27.97
2022-12-18T00:27:00.597Z,27.13
2022-12-18T00:29:27.258Z,27.60
2022-12-18T00:31:53.969Z,28.20
2022-12-18T00:34:20.604Z,29.13
2022-12-18T00:36:49.100Z,24.83
2022-12-18T00:39:15.729Z,27.40
2022-12-18T00:42:01.140Z,27.57
2022-12-18T00:44:27.714Z,29.13
2022-12-18T00:46:54.373Z,26.90
2022-12-18T00:49:21.824Z,27.33
2022-12-18T00:51:49.389Z,27.03
2022-12-18T00:54:16.440Z,26.00
2022-12-18T00:56:49.202Z,28.67
2022-12-18T00:59:17.814Z,26.43
2022-12-18T01:01:45.686Z,27.77
2022-12-18T01:04:12.588Z,24.93
2022-12-18T01:06:39.271Z,26.20
2022-12-18T01:09:06.776Z,25.97
2022-12-18T01:11:33.465Z,25.93
2022-12-18T01:14:00.044Z,26.70
2022-12-18T01:16:26.779Z,24.97
2022-12-18T01:18:55.106Z,25.83
2022-12-18T01:21:22.668Z,25.00
2022-12-18T01:23:53.645Z,26.37
2022-12-18T01:26:20.664Z,24.90
2022-12-18T01:28:47.500Z,27.90
2022-12-18T01:31:21.540Z,27.73
2022-12-18T01:33:48.349Z,25.90
2022-12-18T01:36:41.343Z,25.70
2022-12-18T01:39:11.324Z,31.07
2022-12-18T01:41:57.517Z,26.20
2022-12-18T01:45:02.005Z,26.20
2022-12-18T01:47:39.781Z,26.50
2022-12-18T01:50:13.806Z,26.73
2022-12-18T01:52:43.457Z,25.63
2022-12-18T01:55:10.964Z,25.40
2022-12-18T01:57:38.815Z,25.23
2022-12-18T02:00:10.350Z,26.07
2022-12-18T02:02:37.626Z,26.97
2022-12-18T02:05:05.177Z,26.53
2022-12-18T02:07:50.378Z,26.57
2022-12-18T02:10:26.163Z,28.17
2022-12-18T02:13:11.781Z,25.60
2022-12-18T02:15:49.237Z,24.63
2022-12-18T02:18:30.064Z,25.53
2022-12-18T02:21:17.179Z,27.27
2022-12-18T02:23:49.754Z,27.87
2022-12-18T02:26:23.991Z,26.90
2022-12-18T02:28:57.352Z,27.43
2022-12-18T02:31:31.514Z,27.37
2022-12-18T02:34:02.606Z,28.00
2022-12-18T02:36:30.991Z,25.77
2022-12-18T02:38:58.337Z,28.33
2022-12-18T02:41:25.999Z,27.40
2022-12-18T02:44:07.900Z,28.17
2022-12-18T02:46:38.597Z,30.10
2022-12-18T02:49:35.381Z,27.97
2022-12-18T02:52:18.604Z,26.83
2022-12-18T02:55:22.635Z,26.67
2022-12-18T02:57:55.753Z,28.43
2022-12-18T03:00:28.402Z,26.67
2022-12-18T03:03:04.460Z,26.67
2022-12-18T03:05:44.351Z,26.63
2022-12-18T03:08:20.072Z,27.50
2022-12-18T03:10:56.935Z,26.30
2022-12-18T03:13:29.314Z,28.13
2022-12-18T03:15:57.995Z,29.70
2022-12-18T03:18:31.404Z,29.15
2022-12-18T03:21:01.201Z,35.67
2022-12-18T03:23:32.254Z,29.63
2022-12-18T03:26:07.333Z,29.13
2022-12-18T03:28:41.287Z,31.97
2022-12-18T03:31:12.382Z,26.13
2022-12-18T03:33:47.676Z,28.27
2022-12-18T03:36:14.920Z,28.40
2022-12-18T03:38:41.564Z,28.10
2022-12-18T03:41:18.938Z,26.80
2022-12-18T03:43:59.373Z,27.63
2022-12-18T03:46:34.737Z,28.47
2022-12-18T03:49:16.024Z,26.73
2022-12-18T03:52:15.423Z,27.87
2022-12-18T03:57:15.598Z,27.80
2022-12-18T03:59:43.970Z,28.37
2022-12-18T04:02:11.308Z,28.53
2022-12-18T04:04:39.603Z,26.13
2022-12-18T04:07:07.237Z,26.57
2022-12-18T04:09:34.812Z,27.33
2022-12-18T04:12:01.447Z,26.57
2022-12-18T04:14:28.086Z,28.23
2022-12-18T04:16:54.719Z,28.77
2022-12-18T04:19:21.338Z,28.00
2022-12-18T04:21:47.965Z,26.43
2022-12-18T04:24:14.650Z,29.63
2022-12-18T04:26:41.334Z,28.60
2022-12-18T04:29:08.035Z,28.83
2022-12-18T04:31:34.731Z,30.37
2022-12-18T04:34:01.535Z,27.40
2022-12-18T04:36:28.409Z,28.30
2022-12-18T04:38:55.106Z,29.27
2022-12-18T04:41:21.824Z,28.60
2022-12-18T04:43:48.473Z,28.03
2022-12-18T04:46:15.273Z,27.93
2022-12-18T04:48:42.034Z,27.60
2022-12-18T04:51:08.993Z,25.73
2022-12-18T04:53:35.632Z,26.97
2022-12-18T04:56:11.069Z,27.23
2022-12-18T04:58:38.543Z,28.13
2022-12-18T05:01:06.311Z,27.90
2022-12-18T05:03:33.048Z,28.17
2022-12-18T05:06:00.091Z,30.20
2022-12-18T05:08:26.932Z,26.53
2022-12-18T05:11:16.605Z,27.53
2022-12-18T05:13:45.166Z,28.00
2022-12-18T05:16:12.685Z,26.80
2022-12-18T05:18:39.565Z,28.37
2022-12-18T05:21:06.449Z,27.80
2022-12-18T05:23:33.036Z,26.80
2022-12-18T05:26:02.477Z,29.00
2022-12-18T05:30:58.958Z,26.00
2022-12-18T05:33:27.609Z,26.50
2022-12-18T05:35:58.302Z,24.95
2022-12-18T05:38:26.677Z,27.30
2022-12-18T05:40:54.090Z,25.53
2022-12-18T05:43:22.723Z,24.60
2022-12-18T05:45:50.436Z,26.05
2022-12-18T05:48:18.196Z,27.87
2022-12-18T05:50:49.131Z,26.57
2022-12-18T05:53:17.962Z,24.73
2022-12-18T05:55:45.099Z,26.27
2022-12-18T05:58:12.637Z,22.70
2022-12-18T06:00:41.838Z,23.23
2022-12-18T06:03:10.142Z,23.45
2022-12-18T06:05:41.559Z,25.53
2022-12-18T06:08:08.440Z,25.10
2022-12-18T06:10:35.066Z,24.80
2022-12-18T06:13:02.010Z,22.63
2022-12-18T06:15:28.869Z,22.87
2022-12-18T06:17:55.438Z,24.03
2022-12-18T06:20:22.514Z,23.03
2022-12-18T06:22:49.553Z,21.40
2022-12-18T06:25:16.504Z,22.40
2022-12-18T06:27:43.205Z,23.03
2022-12-18T06:30:11.326Z,19.93
2022-12-18T06:32:38.122Z,21.53
2022-12-18T06:35:05.208Z,22.30
2022-12-18T06:37:32.566Z,21.60
2022-12-18T06:39:59.394Z,20.40
2022-12-18T06:42:26.410Z,19.97
2022-12-18T06:44:53.062Z,22.37
2022-12-18T06:47:20.053Z,21.23
2022-12-18T06:49:46.673Z,21.30
2022-12-18T06:52:13.309Z,22.10
2022-12-18T06:54:39.888Z,20.43
2022-12-18T06:57:06.743Z,23.60
2022-12-18T06:59:33.408Z,19.50
2022-12-18T07:02:00.182Z,21.67
2022-12-18T07:04:31.625Z,19.73
2022-12-18T07:06:58.662Z,21.37
2022-12-18T07:09:25.607Z,20.70
2022-12-18T07:11:53.330Z,20.53
2022-12-18T07:14:20.163Z,21.87
2022-12-18T07:16:46.973Z,19.50
2022-12-18T07:19:13.655Z,18.17
2022-12-18T07:21:40.311Z,19.10
2022-12-18T07:24:07.438Z,20.70
2022-12-18T07:26:34.113Z,18.10
2022-12-18T07:29:00.792Z,19.63
2022-12-18T07:31:28.147Z,19.73
2022-12-18T07:33:55.403Z,20.47
2022-12-18T07:36:25.081Z,20.10
2022-12-18T07:38:53.353Z,20.10
2022-12-18T07:41:20.854Z,18.97
2022-12-18T07:43:47.809Z,18.83
2022-12-18T07:46:16.667Z,19.00
2022-12-18T07:48:45.791Z,18.55
2022-12-18T07:51:16.095Z,19.07
2022-12-18T07:53:43.643Z,18.23
2022-12-18T07:56:29.998Z,19.23
2022-12-18T07:58:57.851Z,19.47
2022-12-18T08:01:24.758Z,18.20
2022-12-18T08:03:52.323Z,20.13
2022-12-18T08:06:19.671Z,18.20
2022-12-18T08:08:49.845Z,18.03
2022-12-18T08:11:17.021Z,17.60
2022-12-18T08:13:43.814Z,18.67
2022-12-18T08:16:10.734Z,18.33
2022-12-18T08:18:38.407Z,20.17
2022-12-18T08:21:12.621Z,18.13
2022-12-18T08:23:43.025Z,16.37
2022-12-18T08:26:11.233Z,17.97
2022-12-18T08:28:37.908Z,17.67
2022-12-18T08:31:04.891Z,17.47
2022-12-18T08:33:31.949Z,18.10
2022-12-18T08:36:00.153Z,16.93
2022-12-18T08:38:26.865Z,19.33
2022-12-18T08:41:05.600Z,15.75
2022-12-18T08:43:50.729Z,17.95
2022-12-18T08:46:21.495Z,17.25
2022-12-18T08:48:48.702Z,18.33
2022-12-18T08:51:18.180Z,17.38
2022-12-18T08:53:45.814Z,18.85
2022-12-18T08:56:13.155Z,18.97
2022-12-18T08:58:40.403Z,17.63
2022-12-18T09:01:11.033Z,18.00
2022-12-18T09:03:38.184Z,19.53
2022-12-18T09:06:06.022Z,20.53
2022-12-18T09:08:32.778Z,20.07
2022-12-18T09:10:59.411Z,20.77
2022-12-18T09:13:26.076Z,19.40
2022-12-18T09:15:54.394Z,19.35
2022-12-18T09:18:23.357Z,20.45
2022-12-18T09:20:51.386Z,19.73
2022-12-18T09:23:18.051Z,18.30
2022-12-18T09:25:44.732Z,19.38
2022-12-18T09:28:16.274Z,19.13
2022-12-18T09:30:46.232Z,19.90
2022-12-18T09:33:13.571Z,20.20
2022-12-18T09:35:41.982Z,20.25
2022-12-18T09:38:12.135Z,20.77
2022-12-18T09:40:54.475Z,20.17
2022-12-18T09:43:46.550Z,20.80
2022-12-18T09:46:30.138Z,21.03
2022-12-18T09:49:01.182Z,22.13
2022-12-18T09:51:33.433Z,22.03
2022-12-18T09:54:05.204Z,23.60
2022-12-18T09:56:37.732Z,23.33
2022-12-18T09:59:05.814Z,22.27
2022-12-18T10:01:41.538Z,22.40
2022-12-18T10:04:10.261Z,22.20
2022-12-18T10:06:40.196Z,24.80
2022-12-18T10:09:29.467Z,23.63
2022-12-18T10:12:05.157Z,25.83
2022-12-18T10:14:52.730Z,25.40
2022-12-18T10:17:46.706Z,27.07
2022-12-18T10:20:46.028Z,25.43
2022-12-18T10:23:48.180Z,30.67
2022-12-18T10:26:15.420Z,30.77
2022-12-18T10:28:44.657Z,29.23
2022-12-18T10:31:24.901Z,27.43
2022-12-18T10:33:52.470Z,30.00
2022-12-18T10:36:19.699Z,31.07
2022-12-18T10:38:46.459Z,30.93
2022-12-18T10:41:19.626Z,31.23
2022-12-18T10:43:48.641Z,31.77
2022-12-18T10:46:20.589Z,30.20
2022-12-18T10:48:55.101Z,34.93
2022-12-18T10:51:31.917Z,30.37
2022-12-18T10:54:00.864Z,32.80
2022-12-18T10:56:30.432Z,32.17
2022-12-18T10:59:02.876Z,34.08
2022-12-18T11:01:47.925Z,31.40
2022-12-18T11:04:22.258Z,33.47
2022-12-18T11:07:01.391Z,34.60
2022-12-18T11:09:33.303Z,34.30
2022-12-18T11:12:02.638Z,35.37
2022-12-18T11:14:31.655Z,35.40
2022-12-18T11:20:00.363Z,35.55
2022-12-18T11:22:30.055Z,39.00
2022-12-18T11:25:32.290Z,37.00
2022-12-18T11:28:03.721Z,35.73
2022-12-18T11:30:31.571Z,34.87
2022-12-18T11:33:20.312Z,34.43
2022-12-18T11:36:06.200Z,35.80
2022-12-18T11:38:40.244Z,36.10
2022-12-18T11:41:52.949Z,35.23
2022-12-18T11:44:30.743Z,34.93
2022-12-18T11:47:04.337Z,36.67
2022-12-18T11:49:37.648Z,39.00
2022-12-18T11:52:22.204Z,38.93
2022-12-18T11:54:52.761Z,37.37
2022-12-18T11:57:48.866Z,36.97
2022-12-18T12:00:19.792Z,36.73
2022-12-18T12:02:59.225Z,34.90
2022-12-18T12:08:16.362Z,37.70
2022-12-18T12:10:57.818Z,37.60
2022-12-18T12:13:36.563Z,36.13
2022-12-18T12:16:18.039Z,35.35
2022-12-18T12:19:05.610Z,37.73
2022-12-18T12:21:38.046Z,39.53
2022-12-18T12:24:38.185Z,38.07
2022-12-18T12:27:16.193Z,38.77
2022-12-18T12:29:55.943Z,36.38
2022-12-18T12:32:55.033Z,40.85
2022-12-18T12:35:36.247Z,37.47
2022-12-18T12:38:29.389Z,36.40
2022-12-18T12:41:03.430Z,36.83
2022-12-18T12:46:38.901Z,36.97
2022-12-18T12:49:36.339Z,36.27
2022-12-18T12:52:15.986Z,37.70
2022-12-18T12:54:44.343Z,37.30
2022-12-18T12:57:21.233Z,36.23
2022-12-18T13:00:25.274Z,36.00
2022-12-18T13:02:58.914Z,36.20
2022-12-18T13:05:39.792Z,34.60
2022-12-18T13:08:11.667Z,35.97
2022-12-18T13:10:44.110Z,37.57
2022-12-18T13:13:18.633Z,37.53
2022-12-18T13:16:04.936Z,38.75
2022-12-18T13:18:34.042Z,36.83
2022-12-18T13:23:47.299Z,47.27
2022-12-18T13:26:28.111Z,37.00
2022-12-18T13:28:57.259Z,36.53
2022-12-18T13:31:42.348Z,35.97
2022-12-18T13:34:26.837Z,37.10
2022-12-18T13:37:33.576Z,39.73
2022-12-18T13:40:00.246Z,37.77
2022-12-18T13:43:11.713Z,38.03
2022-12-18T13:46:04.351Z,35.80
2022-12-18T13:48:34.564Z,38.57
2022-12-18T13:51:10.269Z,36.83
2022-12-18T13:53:45.281Z,36.30
2022-12-18T13:56:19.495Z,36.10
2022-12-18T13:59:03.820Z,37.27
2022-12-18T14:01:30.714Z,35.60
2022-12-18T14:04:11.839Z,37.80
2022-12-18T14:06:38.828Z,38.57
2022-12-18T14:09:06.404Z,37.80
2022-12-18T14:11:36.213Z,37.40
2022-12-18T14:14:08.232Z,35.73
2022-12-18T14:16:35.598Z,37.33
2022-12-18T14:19:07.292Z,37.70
2022-12-18T14:21:46.933Z,37.87
2022-12-18T14:24:19.709Z,37.70
2022-12-18T14:26:48.153Z,35.00
2022-12-18T14:29:24.379Z,34.27
2022-12-18T14:32:11.823Z,35.20
2022-12-18T14:34:42.033Z,35.10
2022-12-18T14:37:11.952Z,35.13
2022-12-18T14:39:38.819Z,33.93
2022-12-18T14:42:05.546Z,34.57
2022-12-18T14:44:44.143Z,35.10
2022-12-18T14:47:18.544Z,32.83
2022-12-18T14:49:45.494Z,33.17
2022-12-18T14:52:32.900Z,34.23
2022-12-18T14:54:59.622Z,35.27
2022-12-18T14:57:36.492Z,34.90
2022-12-18T15:00:08.575Z,34.20
2022-12-18T15:02:37.318Z,32.97
2022-12-18T15:05:19.117Z,32.55
2022-12-18T15:07:48.799Z,33.27
2022-12-18T15:10:19.565Z,34.70
2022-12-18T15:12:50.142Z,31.53
2022-12-18T15:15:37.340Z,35.00
2022-12-18T15:18:09.808Z,33.77
2022-12-18T15:20:44.020Z,32.87
2022-12-18T15:23:34.749Z,34.83
2022-12-18T15:26:09.818Z,35.93
2022-12-18T15:28:44.096Z,33.60
2022-12-18T15:31:12.051Z,32.43
2022-12-18T15:33:45.156Z,33.07
2022-12-18T15:36:18.038Z,34.13
2022-12-18T15:38:56.087Z,32.67
2022-12-18T15:41:36.453Z,33.40
2022-12-18T15:44:16.726Z,32.33
2022-12-18T15:46:43.492Z,33.33
2022-12-18T15:49:10.170Z,33.87
2022-12-18T15:51:38.216Z,30.83
2022-12-18T15:54:09.860Z,31.37
2022-12-18T15:56:55.050Z,33.17
2022-12-18T15:59:21.998Z,32.73
2022-12-18T16:01:51.689Z,32.93
2022-12-18T16:04:21.419Z,32.20
2022-12-18T16:07:13.777Z,32.33
2022-12-18T16:09:35.375Z,32.83
2022-12-18T16:12:02.292Z,31.90
2022-12-18T16:14:32.700Z,32.10
2022-12-18T16:17:01.665Z,32.63
2022-12-18T16:19:29.286Z,33.08
2022-12-18T16:21:58.059Z,35.10
2022-12-18T16:24:30.530Z,31.70
2022-12-18T16:27:00.282Z,33.07
2022-12-18T16:29:28.684Z,31.83
2022-12-18T16:31:56.624Z,33.97
2022-12-18T16:34:29.573Z,31.97
2022-12-18T16:37:05.889Z,35.77
2022-12-18T16:39:34.952Z,34.87
2022-12-18T16:42:06.064Z,33.22
2022-12-18T16:44:35.997Z,31.67
2022-12-18T16:47:03.260Z,32.93
2022-12-18T16:49:30.712Z,31.23
2022-12-18T16:51:57.576Z,32.37
2022-12-18T16:54:24.480Z,31.87
2022-12-18T16:56:52.377Z,33.67
2022-12-18T16:59:19.315Z,34.97
2022-12-18T17:01:47.287Z,32.13
2022-12-18T17:04:14.859Z,33.50
2022-12-18T17:06:43.741Z,32.77
2022-12-18T17:09:15.889Z,32.90
2022-12-18T17:11:43.772Z,33.57
2022-12-18T17:14:14.467Z,34.10
2022-12-18T17:16:41.244Z,32.63
2022-12-18T17:19:13.609Z,32.20
2022-12-18T17:21:45.001Z,32.73
2022-12-18T17:24:11.817Z,33.03
2022-12-18T17:26:38.506Z,32.93
2022-12-18T17:29:05.394Z,31.27
2022-12-18T17:31:32.796Z,34.30
2022-12-18T17:34:01.424Z,33.63
2022-12-18T17:36:34.236Z,30.90
2022-12-18T17:39:02.003Z,31.17
2022-12-18T17:41:29.887Z,33.53
2022-12-18T17:44:02.745Z,31.33
2022-12-18T17:46:31.000Z,33.30
2022-12-18T17:48:59.295Z,31.37
2022-12-18T17:51:26.049Z,34.63
2022-12-18T17:53:52.886Z,34.10
2022-12-18T17:56:22.272Z,32.00
2022-12-18T17:58:50.485Z,32.05
2022-12-18T18:01:20.261Z,33.57
2022-12-18T18:03:48.975Z,32.93
2022-12-18T18:06:18.725Z,31.53
2022-12-18T18:08:45.733Z,33.37
2022-12-18T18:11:34.461Z,35.67
2022-12-18T18:14:02.161Z,33.28
2022-12-18T18:16:36.021Z,35.93
2022-12-18T18:19:05.685Z,33.23
2022-12-18T18:24:01.383Z,36.63
2022-12-18T18:26:31.067Z,39.33
2022-12-18T18:28:59.668Z,38.53
2022-12-18T18:31:29.857Z,35.63
2022-12-18T18:33:57.752Z,34.05
2022-12-18T18:36:24.911Z,33.43
2022-12-18T18:38:52.532Z,32.70
2022-12-18T18:41:20.173Z,34.40
2022-12-18T18:43:46.809Z,36.43
2022-12-18T18:46:15.179Z,36.23
2022-12-18T18:48:42.492Z,34.83
2022-12-18T18:51:19.079Z,34.97
2022-12-18T18:53:49.962Z,33.70
2022-12-18T18:59:05.424Z,34.00
2022-12-18T19:01:32.399Z,34.67
2022-12-18T19:03:59.183Z,34.03
2022-12-18T19:06:27.934Z,32.80
2022-12-18T19:08:55.878Z,34.25
2022-12-18T19:11:43.303Z,34.57
2022-12-18T19:14:12.444Z,32.80
2022-12-18T19:16:40.210Z,33.05
2022-12-18T19:19:07.876Z,33.13
2022-12-18T19:21:35.939Z,34.67
2022-12-18T19:24:06.953Z,42.97
2022-12-18T19:26:34.338Z,39.37
2022-12-18T19:29:06.195Z,35.17
2022-12-18T19:31:36.450Z,34.40
2022-12-18T19:34:07.056Z,32.93
2022-12-18T19:36:36.035Z,33.33
2022-12-18T19:47:46.138Z,32.67
2022-12-18T19:50:13.685Z,31.03
2022-12-18T19:52:41.065Z,31.03
2022-12-18T19:58:00.241Z,31.07
2022-12-18T20:00:27.282Z,30.47
2022-12-18T20:03:02.434Z,33.07
2022-12-18T20:05:34.589Z,29.93
2022-12-18T20:08:01.435Z,29.55
2022-12-18T20:10:28.892Z,28.80
2022-12-18T20:12:56.057Z,28.97
2022-12-18T20:15:24.445Z,29.38
2022-12-18T20:17:52.591Z,32.77
2022-12-18T20:20:19.842Z,29.20
2022-12-18T20:22:50.075Z,29.47
2022-12-18T20:25:17.416Z,30.47
2022-12-18T20:27:46.015Z,31.80
2022-12-18T20:30:13.458Z,29.30
2022-12-18T20:32:40.409Z,30.97
2022-12-18T20:35:07.473Z,29.97
2022-12-18T20:43:17.611Z,27.83
2022-12-18T20:45:44.797Z,31.80
2022-12-18T20:48:14.095Z,29.95
2022-12-18T20:50:43.371Z,28.93
2022-12-18T20:53:10.310Z,33.00
2022-12-18T20:55:42.994Z,28.10
2022-12-18T20:58:09.721Z,32.17
2022-12-18T21:00:36.383Z,31.70
2022-12-18T21:03:03.356Z,30.60
2022-12-18T21:05:30.157Z,29.70
2022-12-18T21:07:56.846Z,29.47
2022-12-18T21:10:23.476Z,31.00
2022-12-18T21:13:00.158Z,29.33
2022-12-18T21:15:29.835Z,30.25
2022-12-18T21:17:56.560Z,28.50
2022-12-18T21:20:23.519Z,30.20
2022-12-18T21:22:50.680Z,30.47
2022-12-18T21:25:18.930Z,30.73
2022-12-18T21:27:45.508Z,31.30
2022-12-18T21:30:14.128Z,30.67
2022-12-18T21:32:40.988Z,29.23
2022-12-18T21:35:08.066Z,30.90
2022-12-18T21:37:34.781Z,32.53
2022-12-18T21:40:01.477Z,30.13
2022-12-18T21:42:46.853Z,30.45
2022-12-18T21:45:13.552Z,30.47
2022-12-18T21:47:40.179Z,30.00
2022-12-18T21:50:07.118Z,29.63
2022-12-18T21:52:33.731Z,30.40
2022-12-18T21:55:07.871Z,31.37
2022-12-18T21:57:35.647Z,30.87
2022-12-18T22:00:02.982Z,29.70
2022-12-18T22:02:29.919Z,31.67
2022-12-18T22:04:56.687Z,31.42
2022-12-18T22:07:23.621Z,29.98
2022-12-18T22:09:50.247Z,30.55
2022-12-18T22:12:35.351Z,32.13
2022-12-18T22:15:06.344Z,31.53
2022-12-18T22:17:33.026Z,31.00
2022-12-18T22:19:59.666Z,29.30
2022-12-18T22:22:26.538Z,32.33
2022-12-18T22:24:53.171Z,31.63
2022-12-18T22:27:19.858Z,33.00
2022-12-18T22:30:04.603Z,28.92
2022-12-18T22:32:35.797Z,30.63
2022-12-18T22:35:09.273Z,31.48
2022-12-18T22:37:39.436Z,32.42
2022-12-18T22:40:07.409Z,29.77
2022-12-18T22:42:34.299Z,30.75
2022-12-18T22:45:00.966Z,31.20
2022-12-18T22:47:30.141Z,29.95
2022-12-18T22:49:58.017Z,32.65
2022-12-18T22:52:25.280Z,31.73
2022-12-18T22:54:53.514Z,31.25
2022-12-18T22:57:21.583Z,33.63
2022-12-18T22:59:49.088Z,31.10
2022-12-18T23:02:16.540Z,30.60
2022-12-18T23:04:43.497Z,33.67
2022-12-18T23:07:10.545Z,34.00
2022-12-18T23:09:38.191Z,30.15
2022-12-18T23:12:05.134Z,33.05
2022-12-18T23:14:32.000Z,33.35
2022-12-18T23:16:58.594Z,33.15
2022-12-18T23:19:26.144Z,32.75
2022-12-18T23:21:52.827Z,34.03
2022-12-18T23:24:21.503Z,33.43
2022-12-18T23:26:48.165Z,30.58
2022-12-18T23:29:14.790Z,30.00
2022-12-18T23:31:41.602Z,31.67
2022-12-18T23:34:11.031Z,32.00
2022-12-18T23:36:46.278Z,32.35
2022-12-18T23:39:15.397Z,33.05
2022-12-18T23:41:56.354Z,30.92
2022-12-18T23:44:23.035Z,32.47
2022-12-18T23:46:49.735Z,32.47
2022-12-18T23:49:16.556Z,31.58
2022-12-18T23:51:43.504Z,31.38
2022-12-18T23:54:10.286Z,33.38
2022-12-18T23:56:36.998Z,31.48
2022-12-18T23:59:03.745Z,31.52
